Time;durP1;ratioP1;P1;durP2;ratioP2;P2;SDS_P1;SDS_P2;PMS_P1;PMS_P2;Temp;Humidity;BMP_temperature;BMP_pressure;BME280_temperature;BME280_humidity;BME280_pressure;Samples;Min_cycle;Max_cycle;Signal;HPM_P1;HPM_P2
2022/01/04 00:02:16;;;;;;;4.35;1.65;;;;;;;7.72;70.20;99064.34;1687818;83;21061;-60
2022/01/04 00:04:43;;;;;;;5.58;1.92;;;;;;;7.68;70.23;99070.80;1690281;84;21036;-60
2022/01/04 00:07:09;;;;;;;3.70;1.35;;;;;;;7.70;70.12;99070.18;1667078;84;21028;-60
2022/01/04 00:09:41;;;;;;;7.20;2.17;;;;;;;7.80;69.83;99069.23;1690363;83;21138;-60
2022/01/04 00:14:56;;;;;;;5.25;1.70;;;;;;;7.90;69.27;99071.02;1658028;84;21095;-60
2022/01/04 00:17:23;;;;;;;6.70;2.30;;;;;;;7.87;69.19;99077.38;1689490;83;21601;-60
2022/01/04 00:19:50;;;;;;;4.20;1.62;;;;;;;7.80;69.21;99077.55;1665734;84;21225;-59
2022/01/04 00:22:16;;;;;;;4.10;1.57;;;;;;;7.78;69.28;99078.18;1674402;84;21003;-60
2022/01/04 00:24:43;;;;;;;6.25;2.02;;;;;;;7.76;69.25;99086.66;1687810;83;21093;-59
2022/01/04 00:27:10;;;;;;;6.10;2.10;;;;;;;7.73;69.29;99082.55;1683046;83;21100;-60
2022/01/04 00:29:38;;;;;;;5.08;1.50;;;;;;;7.78;69.21;99089.97;1691927;83;21083;-61
2022/01/04 00:32:07;;;;;;;3.60;1.52;;;;;;;7.87;68.98;99097.48;1697380;83;21052;-61
2022/01/04 00:34:34;;;;;;;4.12;1.62;;;;;;;7.91;68.79;99089.70;1680882;84;21099;-61
2022/01/04 00:37:00;;;;;;;3.58;1.52;;;;;;;7.93;68.67;99090.39;1686231;82;21728;-60
2022/01/04 00:39:28;;;;;;;4.45;1.30;;;;;;;7.91;68.64;99091.84;1685355;82;21055;-61
2022/01/04 00:41:54;;;;;;;3.42;1.27;;;;;;;7.89;68.62;99101.63;1683594;83;21099;-61
2022/01/04 00:44:20;;;;;;;4.25;1.52;;;;;;;7.87;68.58;99111.88;1688178;82;21181;-61
2022/01/04 00:46:47;;;;;;;4.12;1.77;;;;;;;7.84;68.63;99110.38;1693273;83;21397;-61
2022/01/04 00:49:17;;;;;;;2.95;1.20;;;;;;;7.80;68.64;99114.22;1676400;84;21044;-61
2022/01/04 00:51:44;;;;;;;4.50;1.35;;;;;;;7.79;68.71;99116.02;1701019;83;21528;-61
2022/01/04 00:54:10;;;;;;;4.45;1.72;;;;;;;7.87;68.58;99123.67;1692954;83;21541;-60
2022/01/04 00:56:37;;;;;;;3.92;1.20;;;;;;;7.90;68.41;99114.23;1689205;83;21129;-61
2022/01/04 00:59:04;;;;;;;4.22;1.52;;;;;;;7.89;68.48;99112.59;1693544;82;21107;-61
2022/01/04 01:01:33;;;;;;;5.58;1.50;;;;;;;7.85;68.50;99112.05;1693550;83;21032;-60
2022/01/04 01:03:59;;;;;;;5.60;1.67;;;;;;;7.80;68.60;99106.36;1705506;83;21104;-60
2022/01/04 01:06:27;;;;;;;4.47;1.47;;;;;;;7.76;68.71;99108.92;1704772;82;21342;-60
2022/01/04 01:08:54;;;;;;;4.78;1.55;;;;;;;7.73;68.77;99112.66;1670829;84;21213;-62
2022/01/04 01:11:20;;;;;;;3.83;1.20;;;;;;;7.69;68.82;99109.13;1715187;80;21145;-62
2022/01/04 01:13:47;;;;;;;3.55;1.40;;;;;;;7.71;68.83;99111.13;1733051;80;21024;-62
2022/01/04 01:16:15;;;;;;;4.58;1.30;;;;;;;7.75;68.69;99116.42;1739811;80;21102;-62
2022/01/04 01:18:43;;;;;;;4.67;1.27;;;;;;;7.77;68.62;99110.09;1739897;80;21044;-62
2022/01/04 01:21:11;;;;;;;3.55;1.50;;;;;;;7.77;68.64;99111.90;1725382;80;21087;-62
2022/01/04 01:23:39;;;;;;;4.12;1.00;;;;;;;7.73;68.69;99115.73;1740387;80;21047;-61
2022/01/04 01:26:07;;;;;;;5.15;1.75;;;;;;;7.69;68.77;99110.44;1721851;81;21006;-62
2022/01/04 01:28:35;;;;;;;3.80;1.27;;;;;;;7.63;68.87;99113.94;1726741;80;21134;-61
2022/01/04 01:31:02;;;;;;;4.70;1.20;;;;;;;7.54;68.97;99115.23;1733927;80;21420;-62
2022/01/04 01:33:29;;;;;;;4.37;1.30;;;;;;;7.47;69.25;99112.31;1719451;81;21494;-62
2022/01/04 01:35:57;;;;;;;4.10;1.05;;;;;;;7.44;69.50;99117.33;1740863;81;21110;-61
2022/01/04 01:38:25;;;;;;;3.22;1.02;;;;;;;7.49;69.36;99120.86;1736032;80;21082;-62
2022/01/04 01:40:52;;;;;;;4.47;1.30;;;;;;;7.52;69.32;99128.94;1737753;80;21381;-62
2022/01/04 01:43:19;;;;;;;3.60;1.22;;;;;;;7.51;69.35;99125.96;1726904;81;21050;-62
2022/01/04 01:45:46;;;;;;;3.50;0.93;;;;;;;7.48;69.53;99129.69;1729530;81;21199;-62
2022/01/04 01:48:13;;;;;;;3.25;1.15;;;;;;;7.46;69.57;99137.31;1725492;81;21039;-60
2022/01/04 01:50:41;;;;;;;4.37;1.15;;;;;;;7.40;69.73;99136.06;1682192;83;21110;-60
2022/01/04 01:53:07;;;;;;;2.83;1.02;;;;;;;7.34;69.82;99134.79;1744247;80;21051;-60
2022/01/04 01:55:34;;;;;;;3.50;1.02;;;;;;;7.31;70.07;99139.47;1667924;83;21042;-60
2022/01/04 01:58:01;;;;;;;4.00;1.12;;;;;;;7.27;70.39;99138.91;1676707;83;21866;-59
2022/01/04 02:00:28;;;;;;;4.60;1.07;;;;;;;7.33;70.29;99142.77;1738085;80;21106;-61
2022/01/04 02:02:55;;;;;;;3.40;1.27;;;;;;;7.34;70.44;99144.44;1746601;80;21050;-60
2022/01/04 02:05:21;;;;;;;4.60;1.40;;;;;;;7.34;70.41;99136.09;1701229;82;21519;-60
2022/01/04 02:07:48;;;;;;;2.92;1.00;;;;;;;7.31;70.55;99139.47;1714014;82;21034;-60
2022/01/04 02:10:15;;;;;;;3.98;1.55;;;;;;;7.28;70.66;99147.58;1732729;80;21194;-60
2022/01/04 02:12:47;;;;;;;3.05;1.05;;;;;;;7.25;70.74;99152.12;1730645;80;21023;-60
2022/01/04 02:15:18;;;;;;;4.12;1.22;;;;;;;7.22;70.82;99145.84;1704051;82;21539;-59
2022/01/04 02:17:44;;;;;;;3.22;1.25;;;;;;;7.25;70.75;99156.05;1669685;84;21062;-60
2022/01/04 02:20:12;;;;;;;3.12;1.05;;;;;;;7.32;70.64;99150.29;1699850;83;21134;-60
2022/01/04 02:22:39;;;;;;;4.25;1.57;;;;;;;7.39;70.54;99156.64;1674456;83;22073;-60
2022/01/04 02:25:07;;;;;;;4.12;1.25;;;;;;;7.41;70.45;99152.09;1704177;83;21062;-61
2022/01/04 02:27:36;;;;;;;4.12;1.40;;;;;;;7.38;70.58;99151.05;1674781;84;21003;-61
2022/01/04 02:30:06;;;;;;;3.58;1.40;;;;;;;7.33;70.65;99153.23;1698359;83;21122;-60
2022/01/04 02:32:33;;;;;;;2.92;0.95;;;;;;;7.30;70.63;99150.91;1699688;83;21117;-60
2022/01/04 02:34:59;;;;;;;6.60;1.22;;;;;;;7.25;70.71;99147.37;1673306;83;21904;-60
2022/01/04 02:37:27;;;;;;;2.42;0.98;;;;;;;7.24;70.74;99147.83;1699032;82;21095;-61
2022/01/04 02:39:54;;;;;;;4.10;1.27;;;;;;;7.24;70.74;99138.67;1696821;82;21096;-61
2022/01/04 02:42:22;;;;;;;2.83;0.98;;;;;;;7.32;70.56;99147.67;1690468;82;21094;-61
2022/01/04 02:44:48;;;;;;;4.05;1.17;;;;;;;7.36;70.44;99144.67;1688338;82;21575;-61
2022/01/04 02:47:15;;;;;;;2.90;0.88;;;;;;;7.39;70.32;99146.17;1698903;82;21107;-61
2022/01/04 02:49:42;;;;;;;2.33;0.70;;;;;;;7.35;70.18;99135.64;1704318;83;21075;-61
2022/01/04 02:52:08;;;;;;;3.17;1.20;;;;;;;7.32;69.98;99139.34;1696611;83;21024;-61
2022/01/04 02:54:35;;;;;;;2.22;0.82;;;;;;;7.30;69.92;99138.65;1703175;83;21516;-61
2022/01/04 02:57:02;;;;;;;2.45;0.75;;;;;;;7.26;69.58;99137.23;1693990;83;21078;-61
2022/01/04 02:59:28;;;;;;;5.17;1.05;;;;;;;7.22;69.39;99140.60;1707224;83;21144;-60
2022/01/04 03:01:54;;;;;;;3.58;0.70;;;;;;;7.29;69.29;99137.47;1697588;82;21161;-61
2022/01/04 03:04:21;;;;;;;3.42;0.70;;;;;;;7.36;68.95;99139.89;1702451;83;21053;-60
2022/01/04 03:06:47;;;;;;;2.83;0.72;;;;;;;7.36;68.65;99146.44;1697149;83;21129;-61
2022/01/04 03:09:15;;;;;;;1.82;0.53;;;;;;;7.31;68.81;99143.39;1699336;83;21117;-60
2022/01/04 03:11:41;;;;;;;2.25;0.70;;;;;;;7.25;68.97;99153.42;1676286;83;22085;-60
2022/01/04 03:14:10;;;;;;;2.67;0.70;;;;;;;7.22;69.06;99153.69;1740155;80;20980;-62
2022/01/04 03:16:36;;;;;;;1.52;0.40;;;;;;;7.19;69.12;99157.87;1737192;80;21016;-62
2022/01/04 03:19:06;;;;;;;1.45;0.47;;;;;;;7.15;69.26;99164.33;1734602;80;21110;-62
2022/01/04 03:21:38;;;;;;;2.40;0.62;;;;;;;7.16;69.36;99163.38;1729409;80;21524;-62
2022/01/04 03:24:06;;;;;;;1.85;0.60;;;;;;;7.24;69.28;99164.84;1735076;80;20972;-62
2022/01/04 03:26:33;;;;;;;2.47;0.62;;;;;;;7.32;69.32;99165.50;1726648;81;21110;-60
2022/01/04 03:28:59;;;;;;;1.67;0.50;;;;;;;7.39;69.24;99165.80;1698673;82;21311;-62
2022/01/04 03:31:27;;;;;;;1.62;0.47;;;;;;;7.37;69.17;99160.70;1732579;82;21052;-60
2022/01/04 03:33:53;;;;;;;2.65;0.75;;;;;;;7.33;69.23;99171.09;1737471;81;21071;-60
2022/01/04 03:36:21;;;;;;;3.02;0.70;;;;;;;7.30;69.30;99166.61;1709272;80;21812;-60
2022/01/04 03:38:48;;;;;;;2.77;0.80;;;;;;;7.25;69.53;99168.30;1724999;80;21580;-60
2022/01/04 03:41:16;;;;;;;1.47;0.55;;;;;;;7.24;69.49;99172.69;1726820;80;21008;-60
2022/01/04 03:43:43;;;;;;;2.30;0.70;;;;;;;7.23;69.44;99180.70;1703821;82;21559;-60
2022/01/04 03:46:10;;;;;;;2.40;0.65;;;;;;;7.28;69.22;99182.90;1675869;84;21833;-59
2022/01/04 03:48:36;;;;;;;2.92;0.45;;;;;;;7.29;69.09;99184.56;1734094;80;21160;-60
2022/01/04 03:51:03;;;;;;;2.05;0.60;;;;;;;7.29;69.12;99189.80;1723540;80;20985;-60
2022/01/04 03:53:31;;;;;;;2.40;0.80;;;;;;;7.23;69.19;99197.70;1739074;80;21071;-60
2022/01/04 03:55:57;;;;;;;3.05;0.60;;;;;;;7.16;69.23;99198.70;1740313;80;21082;-60
2022/01/04 03:58:24;;;;;;;3.52;0.75;;;;;;;7.11;69.35;99193.49;1732024;80;21082;-59
2022/01/04 04:00:50;;;;;;;1.27;0.42;;;;;;;7.07;69.40;99208.62;1700421;82;21784;-59
2022/01/04 04:03:17;;;;;;;1.35;0.40;;;;;;;7.02;69.64;99209.00;1671824;84;21043;-59
2022/01/04 04:05:43;;;;;;;4.25;0.50;;;;;;;7.07;69.62;99208.62;1704585;82;21031;-59
2022/01/04 04:08:11;;;;;;;2.37;0.50;;;;;;;7.11;69.66;99210.04;1692441;82;21767;-60
2022/01/04 04:10:38;;;;;;;1.82;0.42;;;;;;;7.08;69.69;99215.52;1692677;83;21055;-59
2022/01/04 04:13:04;;;;;;;2.62;0.60;;;;;;;7.06;69.73;99223.95;1724257;81;21051;-59
2022/01/04 04:15:32;;;;;;;2.77;0.68;;;;;;;7.03;69.73;99226.85;1732399;81;21063;-60
2022/01/04 04:17:59;;;;;;;2.60;0.53;;;;;;;6.98;70.05;99218.08;1712531;80;22115;-59
2022/01/04 04:20:25;;;;;;;2.72;0.50;;;;;;;7.02;70.24;99226.48;1720389;81;21102;-60
2022/01/04 04:22:51;;;;;;;3.52;0.80;;;;;;;7.05;70.40;99222.31;1734746;80;21513;-59
2022/01/04 04:25:18;;;;;;;1.98;0.57;;;;;;;7.06;70.58;99230.49;1733534;80;21165;-59
2022/01/04 04:27:44;;;;;;;2.67;0.70;;;;;;;7.02;71.08;99226.48;1701033;82;21035;-59
2022/01/04 04:30:12;;;;;;;2.27;0.65;;;;;;;6.99;71.41;99230.66;1670770;83;21121;-59
2022/01/04 04:32:40;;;;;;;2.37;0.72;;;;;;;6.97;71.48;99229.97;1740719;80;21556;-60
2022/01/04 04:35:07;;;;;;;2.37;0.50;;;;;;;6.98;71.67;99239.00;1740199;80;21043;-59
2022/01/04 04:37:33;;;;;;;2.75;0.88;;;;;;;7.03;71.70;99230.77;1687359;83;21098;-59
2022/01/04 04:40:01;;;;;;;3.27;0.82;;;;;;;7.11;71.61;99229.66;1675431;83;21054;-59
2022/01/04 04:42:27;;;;;;;4.97;1.10;;;;;;;7.17;71.67;99224.37;1684622;82;21556;-60
2022/01/04 04:44:55;;;;;;;3.85;0.90;;;;;;;7.22;71.76;99234.80;1709393;82;21059;-59
2022/01/04 04:47:21;;;;;;;4.42;1.70;;;;;;;7.19;71.79;99235.05;1701674;82;21086;-60
2022/01/04 04:49:48;;;;;;;5.45;2.00;;;;;;;7.16;71.95;99239.25;1699920;82;21179;-60
2022/01/04 04:52:14;;;;;;;4.97;2.35;;;;;;;7.12;72.16;99243.06;1716114;82;21141;-60
2022/01/04 04:54:41;;;;;;;8.25;2.70;;;;;;;7.11;72.24;99243.20;1707562;82;21516;-60
2022/01/04 04:58:04;;;;;;;4.10;1.42;;;;;;;7.11;72.37;99249.28;1794534;77;22795;-61
2022/01/04 05:00:31;;;;;;;4.17;1.27;;;;;;;7.12;72.25;99253.53;1746600;79;21919;-61
2022/01/04 05:02:58;;;;;;;4.33;1.50;;;;;;;7.15;72.18;99249.84;1746770;79;21134;-61
2022/01/04 05:05:24;;;;;;;2.92;1.17;;;;;;;7.17;72.17;99256.59;1762790;79;22313;-61
2022/01/04 05:07:50;;;;;;;3.77;1.15;;;;;;;7.17;72.29;99260.52;1748391;80;20992;-61
2022/01/04 05:10:17;;;;;;;3.40;1.47;;;;;;;7.13;72.42;99260.44;1754217;80;21484;-61
2022/01/04 05:12:45;;;;;;;4.22;1.72;;;;;;;7.09;72.61;99262.94;1751177;80;21026;-61
2022/01/04 05:15:11;;;;;;;8.25;1.67;;;;;;;7.07;72.82;99266.16;1768659;79;21122;-61
2022/01/04 05:17:39;;;;;;;4.55;1.52;;;;;;;7.03;72.89;99270.83;1712729;81;21447;-61
2022/01/04 05:20:08;;;;;;;4.03;1.80;;;;;;;7.02;72.89;99268.34;1761483;80;21024;-60
2022/01/04 05:22:34;;;;;;;4.72;1.60;;;;;;;7.07;72.88;99274.02;1768391;80;20923;-61
2022/01/04 05:25:00;;;;;;;4.50;1.75;;;;;;;7.10;72.78;99271.15;1742590;80;21603;-60
2022/01/04 05:27:27;;;;;;;6.10;2.17;;;;;;;7.11;72.79;99272.81;1725125;80;21116;-61
2022/01/04 05:29:53;;;;;;;5.35;2.08;;;;;;;7.06;72.83;99269.27;1756560;79;21543;-61
2022/01/04 05:32:20;;;;;;;6.05;1.98;;;;;;;6.98;72.91;99283.45;1752002;79;21086;-61
2022/01/04 05:34:46;;;;;;;4.47;1.87;;;;;;;6.91;73.02;99280.16;1739792;80;21082;-61
2022/01/04 05:37:12;;;;;;;5.80;2.33;;;;;;;6.85;73.19;99286.24;1755880;79;21079;-61
2022/01/04 05:39:39;;;;;;;4.95;2.22;;;;;;;6.87;73.17;99293.48;1755740;80;21351;-61
2022/01/04 05:42:08;;;;;;;5.53;2.08;;;;;;;6.93;73.03;99296.58;1750386;79;21086;-61
2022/01/04 05:44:36;;;;;;;5.08;2.37;;;;;;;6.97;73.02;99292.73;1744547;80;21095;-61
2022/01/04 05:47:05;;;;;;;4.65;2.00;;;;;;;6.97;73.05;99299.28;1788612;79;20993;-61
2022/01/04 05:49:33;;;;;;;6.08;2.62;;;;;;;6.93;73.36;99298.70;1752621;80;21082;-61
2022/01/04 05:52:00;;;;;;;4.50;2.20;;;;;;;6.85;73.69;99303.73;1749285;79;21854;-61
2022/01/04 05:54:26;;;;;;;7.20;2.55;;;;;;;6.83;73.89;99311.70;1741799;80;21057;-60
2022/01/04 05:56:53;;;;;;;4.72;2.55;;;;;;;6.79;73.91;99314.22;1754265;79;21003;-61
2022/01/04 05:59:19;;;;;;;5.45;2.27;;;;;;;6.80;73.93;99320.27;1769357;79;21063;-61
2022/01/04 06:01:46;;;;;;;5.62;2.10;;;;;;;6.84;73.96;99306.83;1774713;79;22165;-61
2022/01/04 06:04:12;;;;;;;9.48;2.77;;;;;;;6.89;73.86;99312.97;1761848;79;21130;-61
2022/01/04 06:06:41;;;;;;;5.33;2.33;;;;;;;6.93;73.73;99318.80;1756320;79;21054;-61
2022/01/04 06:09:17;;;;;;;5.85;2.37;;;;;;;6.90;73.42;99318.56;1740756;80;21058;-61
2022/01/04 06:11:56;;;;;;;4.87;2.12;;;;;;;6.86;73.40;99319.78;1757369;79;21094;-61
2022/01/04 06:16:57;;;;;;;6.15;2.45;;;;;;;6.80;73.16;99332.04;1752457;79;21049;-61
2022/01/04 06:19:24;;;;;;;4.85;2.30;;;;;;;6.91;73.01;99336.38;1737888;80;21113;-60
2022/01/04 06:21:50;;;;;;;4.72;2.05;;;;;;;6.96;72.77;99338.99;1763557;79;21045;-60
2022/01/04 06:24:17;;;;;;;6.42;2.20;;;;;;;6.98;72.53;99340.17;1756887;79;21114;-60
2022/01/04 06:26:45;;;;;;;5.08;2.35;;;;;;;6.95;72.56;99345.17;1765075;79;21071;-60
2022/01/04 06:29:14;;;;;;;7.17;3.02;;;;;;;6.91;72.54;99341.61;1761511;80;21132;-60
2022/01/04 06:31:42;;;;;;;6.03;2.70;;;;;;;6.88;72.53;99355.30;1759743;79;21106;-60
2022/01/04 06:34:08;;;;;;;6.25;2.85;;;;;;;6.84;72.44;99347.81;1760791;79;21611;-60
2022/01/04 06:36:35;;;;;;;6.17;2.80;;;;;;;6.84;72.43;99359.13;1756934;79;21061;-60
2022/01/04 06:39:01;;;;;;;7.28;2.70;;;;;;;6.89;72.31;99348.27;1739232;80;21093;-60
2022/01/04 06:41:28;;;;;;;6.62;2.60;;;;;;;6.94;72.17;99359.67;1737546;80;21100;-60
2022/01/04 06:43:54;;;;;;;4.95;2.30;;;;;;;6.99;72.13;99358.82;1758990;80;21044;-60
2022/01/04 06:46:21;;;;;;;4.97;2.12;;;;;;;6.98;72.01;99359.80;1760835;80;21048;-60
2022/01/04 06:48:47;;;;;;;5.33;1.95;;;;;;;6.96;71.95;99361.67;1757330;80;21541;-59
2022/01/04 06:51:14;;;;;;;5.85;2.50;;;;;;;6.91;72.04;99360.77;1749652;79;21055;-60
2022/01/04 06:53:40;;;;;;;9.43;2.75;;;;;;;6.86;72.04;99372.91;1739811;80;21126;-60
2022/01/04 06:56:06;;;;;;;4.85;2.10;;;;;;;6.87;72.08;99375.03;1762169;79;21066;-60
2022/01/04 06:58:34;;;;;;;3.55;1.72;;;;;;;6.92;71.87;99365.02;1760067;79;21419;-60
2022/01/04 07:01:01;;;;;;;4.92;1.85;;;;;;;7.00;71.79;99364.41;1753292;79;21617;-60
2022/01/04 07:03:27;;;;;;;5.20;2.50;;;;;;;7.03;71.62;99363.69;1749241;79;21062;-60
2022/01/04 07:05:53;;;;;;;6.78;3.17;;;;;;;7.03;71.62;99373.33;1757549;79;21081;-60
2022/01/04 07:08:21;;;;;;;5.37;2.00;;;;;;;6.98;71.74;99370.26;1689600;82;21567;-61
2022/01/04 07:10:48;;;;;;;5.08;2.50;;;;;;;6.91;72.07;99361.22;1755273;80;21054;-61
2022/01/04 07:13:15;;;;;;;4.47;2.00;;;;;;;6.96;72.10;99373.45;1756115;79;22032;-60
2022/01/04 07:15:43;;;;;;;5.42;1.60;;;;;;;7.02;72.11;99368.55;1758389;80;21059;-61
2022/01/04 07:18:09;;;;;;;5.85;2.37;;;;;;;7.07;72.06;99374.23;1756861;79;22219;-61
2022/01/04 07:20:37;;;;;;;7.47;4.15;;;;;;;7.07;72.01;99368.19;1755150;80;21051;-60
2022/01/04 07:23:05;;;;;;;6.65;3.20;;;;;;;7.04;71.91;99377.13;1762601;79;21114;-61
2022/01/04 07:25:31;;;;;;;5.58;2.33;;;;;;;7.01;71.63;99377.38;1740009;80;21010;-61
2022/01/04 07:27:59;;;;;;;5.10;2.40;;;;;;;7.01;71.52;99379.98;1741793;80;21063;-59
2022/01/04 07:30:25;;;;;;;6.78;2.22;;;;;;;7.09;71.45;99387.20;1770669;79;21504;-60
2022/01/04 07:32:52;;;;;;;7.90;2.22;;;;;;;7.15;71.09;99374.93;1759818;79;21051;-61
2022/01/04 07:35:19;;;;;;;5.42;2.10;;;;;;;7.20;71.08;99378.48;1757665;79;21059;-60
2022/01/04 07:37:45;;;;;;;5.35;2.50;;;;;;;7.20;70.59;99376.69;1756812;79;21051;-61
2022/01/04 07:40:12;;;;;;;5.20;2.60;;;;;;;7.17;70.29;99371.70;1755622;79;21518;-61
2022/01/04 07:42:40;;;;;;;4.37;2.17;;;;;;;7.14;70.38;99375.87;1754842;79;21075;-61
2022/01/04 07:45:08;;;;;;;6.15;2.30;;;;;;;7.10;70.17;99368.42;1757663;80;21102;-61
2022/01/04 07:47:34;;;;;;;7.25;2.10;;;;;;;7.14;69.90;99375.87;1758722;79;21024;-60
2022/01/04 07:50:03;;;;;;;7.12;2.80;;;;;;;7.17;69.62;99378.73;1758659;79;21035;-61
2022/01/04 07:52:30;;;;;;;5.12;1.92;;;;;;;7.14;69.57;99388.95;1735579;80;21049;-61
2022/01/04 07:54:57;;;;;;;4.87;2.30;;;;;;;7.09;69.87;99391.12;1761341;80;21223;-61
2022/01/04 07:57:25;;;;;;;8.45;2.35;;;;;;;7.07;70.01;99379.95;1758195;79;21873;-61
2022/01/04 07:59:53;;;;;;;5.28;2.40;;;;;;;7.09;69.89;99387.20;1735051;80;21054;-61
2022/01/04 08:02:19;;;;;;;5.65;2.50;;;;;;;7.10;69.72;99396.71;1752832;79;21058;-61
2022/01/04 08:04:45;;;;;;;7.85;2.60;;;;;;;7.13;69.39;99412.63;1753445;79;21039;-60
2022/01/04 08:07:12;;;;;;;5.85;2.25;;;;;;;7.23;69.15;99407.02;1755187;79;21079;-60
2022/01/04 08:09:41;;;;;;;5.95;2.33;;;;;;;7.34;68.97;99396.48;1756169;79;21090;-61
2022/01/04 08:12:09;;;;;;;6.90;2.47;;;;;;;7.40;68.04;99406.45;1757879;79;21039;-62
2022/01/04 08:14:36;;;;;;;5.35;2.22;;;;;;;7.41;67.76;99404.66;1756098;79;21039;-61
2022/01/04 08:17:03;;;;;;;6.50;2.50;;;;;;;7.40;68.16;99405.63;1764415;79;21090;-61
2022/01/04 08:19:29;;;;;;;5.53;2.10;;;;;;;7.37;67.21;99411.94;1757903;79;21111;-61
2022/01/04 08:21:55;;;;;;;6.50;2.58;;;;;;;7.35;67.00;99402.56;1744754;80;21021;-60
2022/01/04 08:24:22;;;;;;;5.50;2.15;;;;;;;7.30;67.21;99398.19;1750346;80;21072;-62
2022/01/04 08:26:48;;;;;;;6.03;2.25;;;;;;;7.30;67.31;99403.42;1759623;79;21129;-62
2022/01/04 08:29:15;;;;;;;4.55;2.08;;;;;;;7.39;67.19;99398.73;1755932;79;21030;-60
2022/01/04 08:31:41;;;;;;;6.67;2.47;;;;;;;7.44;66.89;99407.03;1741323;80;21184;-61
2022/01/04 08:34:07;;;;;;;6.17;2.77;;;;;;;7.40;66.83;99397.78;1750250;79;20966;-61
2022/01/04 08:36:36;;;;;;;5.78;2.22;;;;;;;7.36;66.96;99396.36;1753558;79;21075;-61
2022/01/04 08:39:02;;;;;;;6.90;2.70;;;;;;;7.32;66.83;99413.28;1753391;80;21038;-62
2022/01/04 08:41:28;;;;;;;6.55;2.40;;;;;;;7.27;66.97;99401.05;1747802;79;22120;-61
2022/01/04 08:43:55;;;;;;;9.35;2.70;;;;;;;7.21;67.18;99404.52;1748794;80;21150;-61
2022/01/04 08:46:22;;;;;;;5.42;2.47;;;;;;;7.27;67.05;99402.36;1737501;80;21028;-61
2022/01/04 08:48:49;;;;;;;5.65;1.98;;;;;;;7.37;66.88;99392.80;1736047;80;21547;-61
2022/01/04 08:51:15;;;;;;;4.83;1.95;;;;;;;7.41;66.26;99401.58;1757638;79;21154;-61
2022/01/04 08:53:42;;;;;;;6.40;2.30;;;;;;;7.40;66.09;99399.91;1758357;79;20989;-61
2022/01/04 08:56:09;;;;;;;5.35;2.10;;;;;;;7.34;66.29;99403.51;1753443;79;21170;-61
2022/01/04 08:58:36;;;;;;;5.47;2.37;;;;;;;7.31;66.28;99403.76;1737258;81;21091;-60
2022/01/04 09:01:02;;;;;;;7.25;2.60;;;;;;;7.27;66.56;99420.68;1730419;81;21019;-61
2022/01/04 09:03:30;;;;;;;7.60;2.98;;;;;;;7.26;66.60;99425.06;1747968;80;21028;-61
2022/01/04 09:05:58;;;;;;;6.50;2.90;;;;;;;7.30;66.40;99429.11;1733829;80;21009;-61
2022/01/04 09:08:25;;;;;;;7.80;2.47;;;;;;;7.40;66.08;99410.87;1729965;81;21083;-60
2022/01/04 09:10:51;;;;;;;7.40;2.77;;;;;;;7.45;65.83;99411.32;1749949;79;21064;-60
2022/01/04 09:13:21;;;;;;;6.78;3.08;;;;;;;7.42;65.47;99412.39;1753506;80;22544;-59
2022/01/04 09:21:19;;;;;;;8.83;3.37;;;;;;;7.30;65.50;99411.27;1748538;80;21181;-59
2022/01/04 09:23:47;;;;;;;5.83;2.62;;;;;;;7.27;65.82;99419.38;1730965;81;21100;-60
2022/01/04 09:26:17;;;;;;;8.68;2.45;;;;;;;7.24;66.12;99426.48;1750866;80;21010;-60
2022/01/04 09:28:45;;;;;;;6.92;3.35;;;;;;;7.29;66.05;99423.99;1751070;80;21031;-59
2022/01/04 09:31:12;;;;;;;7.20;2.85;;;;;;;7.39;65.78;99425.72;1755197;80;22085;-60
2022/01/04 09:33:39;;;;;;;7.97;3.30;;;;;;;7.49;65.63;99428.42;1733565;81;21205;-59
2022/01/04 09:36:06;;;;;;;11.48;3.45;;;;;;;7.47;65.39;99418.56;1748819;80;21782;-60
2022/01/04 09:38:34;;;;;;;6.15;3.22;;;;;;;7.48;65.68;99414.14;1750944;80;21986;-59
2022/01/04 09:41:01;;;;;;;7.03;2.98;;;;;;;7.50;65.59;99418.77;1746593;80;21041;-60
2022/01/04 09:43:28;;;;;;;7.45;3.50;;;;;;;7.52;65.47;99413.77;1731151;80;21592;-59
2022/01/04 09:45:54;;;;;;;6.37;3.33;;;;;;;7.53;65.30;99415.44;1750201;80;21079;-60
2022/01/04 09:48:20;;;;;;;8.15;3.00;;;;;;;7.55;65.41;99418.76;1730658;81;21084;-60
2022/01/04 09:50:47;;;;;;;9.88;3.37;;;;;;;7.64;65.37;99430.25;1752268;80;20986;-60
2022/01/04 09:53:19;;;;;;;7.58;3.92;;;;;;;7.81;65.18;99431.45;1749470;80;21043;-61
2022/01/04 09:55:49;;;;;;;7.12;3.30;;;;;;;7.91;63.88;99414.01;1753910;80;21486;-60
2022/01/04 09:58:18;;;;;;;6.60;2.95;;;;;;;7.97;63.49;99428.39;1721647;81;21131;-60
2022/01/04 10:00:45;;;;;;;8.75;3.33;;;;;;;7.92;63.15;99424.84;1719880;80;21066;-61
2022/01/04 10:03:15;;;;;;;8.13;3.17;;;;;;;7.92;63.36;99424.03;1720213;80;22250;-60
2022/01/04 10:05:42;;;;;;;8.30;3.80;;;;;;;7.88;63.35;99422.61;1704727;81;21381;-61
2022/01/04 10:08:11;;;;;;;9.73;3.62;;;;;;;7.77;63.72;99427.45;1683123;82;21096;-60
2022/01/04 10:10:38;;;;;;;10.70;3.25;;;;;;;7.68;63.95;99427.71;1717749;81;21298;-60
2022/01/04 10:13:10;;;;;;;6.22;2.72;;;;;;;7.66;64.18;99436.67;1729246;80;21131;-60
2022/01/04 10:15:41;;;;;;;6.33;2.83;;;;;;;7.68;63.87;99429.51;1707764;82;21027;-60
2022/01/04 10:18:23;;;;;;;7.17;2.90;;;;;;;7.76;63.37;99423.98;1705047;81;21082;-60
2022/01/04 10:21:04;;;;;;;7.95;3.10;;;;;;;7.79;63.44;99436.00;1661910;84;21095;-61
2022/01/04 10:23:32;;;;;;;9.73;3.52;;;;;;;7.79;63.27;99425.53;1727410;80;21605;-59
2022/01/04 10:26:05;;;;;;;8.25;2.72;;;;;;;7.76;63.29;99424.47;1670939;82;21647;-60
2022/01/04 10:28:37;;;;;;;10.13;4.03;;;;;;;7.76;63.66;99435.77;1683976;82;21055;-60
2022/01/04 10:31:13;;;;;;;11.28;3.12;;;;;;;7.75;63.45;99438.05;1726664;80;21126;-60
2022/01/04 10:33:39;;;;;;;7.80;3.35;;;;;;;7.70;63.73;99432.37;1721750;81;26689;-61
2022/01/04 10:36:12;;;;;;;7.53;3.42;;;;;;;7.68;63.88;99433.44;1702958;81;21148;-61
2022/01/04 10:38:44;;;;;;;6.40;3.35;;;;;;;7.64;63.97;99438.11;1719942;81;21394;-61
2022/01/04 10:41:23;;;;;;;7.42;3.08;;;;;;;7.70;63.70;99439.38;1728685;81;21066;-61
2022/01/04 10:43:58;;;;;;;8.75;4.20;;;;;;;7.75;63.83;99439.81;1687637;82;21512;-61
2022/01/04 10:46:38;;;;;;;;;;;;;;;7.75;63.55;99453.77;1668709;83;20977;-61
2022/01/04 10:49:21;;;;;;;6.60;3.33;;;;;;;7.72;63.51;99457.94;1694942;82;21132;-60
2022/01/04 10:52:08;;;;;;;6.80;3.70;;;;;;;7.62;63.12;99446.57;1664387;82;21118;-60
2022/01/04 10:54:35;;;;;;;10.88;3.17;;;;;;;7.56;63.33;99447.89;1716333;81;20992;-60
2022/01/04 10:57:09;;;;;;;6.45;3.12;;;;;;;7.49;63.67;99447.23;1722884;80;21153;-60
2022/01/04 10:59:36;;;;;;;6.45;3.45;;;;;;;7.47;63.71;99445.22;1733188;80;21573;-60
2022/01/04 11:02:04;;;;;;;8.60;3.30;;;;;;;7.45;64.12;99444.03;1759413;79;22340;-60
2022/01/04 11:04:30;;;;;;;9.73;3.37;;;;;;;7.51;63.91;99434.34;1696856;82;21020;-60
2022/01/04 11:06:59;;;;;;;9.45;3.30;;;;;;;7.63;62.99;99439.91;1752757;80;21021;-60
2022/01/04 11:09:25;;;;;;;7.03;3.05;;;;;;;7.70;62.85;99440.68;1762984;79;21022;-60
2022/01/04 11:11:53;;;;;;;9.28;3.20;;;;;;;7.71;62.79;99440.55;1755986;80;21051;-60
2022/01/04 11:14:21;;;;;;;9.18;3.75;;;;;;;7.73;63.02;99436.05;1743739;80;21079;-60
2022/01/04 11:16:49;;;;;;;10.30;4.05;;;;;;;7.77;63.25;99433.51;1726279;81;21092;-60
2022/01/04 11:19:15;;;;;;;8.00;3.85;;;;;;;7.83;62.97;99432.16;1720994;82;21612;-60
2022/01/04 11:21:42;;;;;;;8.10;3.50;;;;;;;7.86;62.97;99433.70;1735481;79;21005;-60
2022/01/04 11:24:12;;;;;;;7.53;3.80;;;;;;;7.84;62.84;99433.83;1765669;79;21076;-60
2022/01/04 11:26:44;;;;;;;8.58;3.52;;;;;;;7.80;62.87;99429.78;1764446;79;21997;-59
2022/01/04 11:29:10;;;;;;;6.83;3.50;;;;;;;7.79;62.71;99441.23;1765094;79;21034;-60
2022/01/04 11:32:01;;;;;;;11.85;4.08;;;;;;;7.74;63.04;99435.07;1755375;79;21576;-61
2022/01/04 11:35:12;;;;;;;10.35;3.30;;;;;;;7.76;63.22;99429.70;1754792;80;21079;-60
2022/01/04 11:37:42;;;;;;;8.03;3.12;;;;;;;7.86;63.20;99442.87;1754724;79;21059;-59
2022/01/04 11:40:32;;;;;;;7.30;2.92;;;;;;;7.96;62.89;99434.59;1758098;80;22579;-60
2022/01/04 11:43:00;;;;;;;6.33;3.12;;;;;;;8.07;62.95;99439.75;1758304;79;20963;-61
2022/01/04 11:45:48;;;;;;;7.33;3.35;;;;;;;8.14;62.76;99439.58;1749455;80;21046;-61
2022/01/04 11:48:44;;;;;;;9.13;3.37;;;;;;;8.17;62.67;99434.57;1757221;79;21028;-60
2022/01/04 11:51:31;;;;;;;7.22;3.15;;;;;;;8.21;62.59;99435.13;1755541;79;21072;-60
2022/01/04 11:54:26;;;;;;;7.58;3.62;;;;;;;8.22;62.38;99447.26;1760761;79;21926;-60
2022/01/04 11:56:58;;;;;;;11.15;4.00;;;;;;;8.19;62.57;99447.05;1761382;79;21446;-61
2022/01/04 11:59:38;;;;;;;7.50;3.30;;;;;;;8.20;62.37;99443.45;1762208;79;21073;-60